CheckWX is a tool to help pilots better visualize weather data.  It is not intended as a substitute for an official pre-flight weather briefing.

17:00:36 UTC

KRDG METAR
Reading Regional / Carl A Spaatz Field Airport
Reading, Pennsylvania, USA
Current

1 hour ago

KRDG 191554Z 34005KT 10SM FEW070 19/09 A3035 RMK AO2 SLP282 T01890094
Observed
Sep-19 @ 15:54 UTC
Wind
  • 340° at 5 KTS
Visibility
10 SM
Flight Rules
VFR
Cloud Levels
  • Few at 7,000' AGL
Temperature
19°C / 66°F
Dewpoint
C / 48°F
Humidity
52%
Altimeter
30.35" Hg
Pressure
1027.82 hPa
Previous

2 hours ago

KRDG 191454Z 02004KT 10SM CLR 17/09 A3036 RMK AO2 SLP284 T01670089 50003
Observed
Sep-19 @ 14:54 UTC
Wind
  • 020° at 4 KTS
Visibility
10 SM
Flight Rules
VFR
Cloud Levels
  • Clear skies
Temperature
17°C / 63°F
Dewpoint
C / 48°F
Humidity
59%
Altimeter
30.36" Hg
Pressure
1028.12 hPa
Previous

3 hours ago

KRDG 191354Z VRB03KT 10SM CLR 15/09 A3037 RMK AO2 SLP287 T01500094
Observed
Sep-19 @ 13:54 UTC
Wind
  • Variable at 3 KTS
Visibility
10 SM
Flight Rules
VFR
Cloud Levels
  • Clear skies
Temperature
15°C / 59°F
Dewpoint
C / 48°F
Humidity
68%
Altimeter
30.37" Hg
Pressure
1028.42 hPa